Time;durP1;ratioP1;P1;durP2;ratioP2;P2;SDS_P1;SDS_P2;PMS_P1;PMS_P2;Temp;Humidity;BMP_temperature;BMP_pressure;BME280_temperature;BME280_humidity;BME280_pressure;Samples;Min_cycle;Max_cycle;Signal;HPM_P1;HPM_P2
2022/11/30 00:00:54;;;;;;;3.03;2.17;;;8.40;99.90;;;;;;5047052;28;20197;-78
2022/11/30 00:03:21;;;;;;;4.47;2.50;;;8.40;99.90;;;;;;5048231;28;20239;-79
2022/11/30 00:05:49;;;;;;;9.07;3.10;;;8.40;99.90;;;;;;5060686;28;20688;-79
2022/11/30 00:08:16;;;;;;;7.40;3.70;;;8.40;99.90;;;;;;5068548;28;20463;-79
2022/11/30 00:10:44;;;;;;;8.60;3.23;;;8.40;99.90;;;;;;5067955;28;20288;-77
2022/11/30 00:13:11;;;;;;;4.70;3.00;;;8.40;99.90;;;;;;5067089;28;20238;-78
2022/11/30 00:15:38;;;;;;;5.57;3.37;;;8.40;99.90;;;;;;5054038;28;20220;-78
2022/11/30 00:18:05;;;;;;;5.03;3.60;;;8.40;99.90;;;;;;5047879;28;20216;-79
2022/11/30 00:20:32;;;;;;;5.40;3.47;;;8.40;99.90;;;;;;5046476;28;20219;-78
2022/11/30 00:22:59;;;;;;;6.13;4.07;;;8.40;99.90;;;;;;5047811;28;20225;-79
2022/11/30 00:25:26;;;;;;;7.23;3.80;;;8.40;99.90;;;;;;5047301;28;20202;-78
2022/11/30 00:27:54;;;;;;;6.90;3.80;;;8.40;99.90;;;;;;5047483;28;20212;-79
2022/11/30 00:30:21;;;;;;;4.93;3.70;;;8.40;99.90;;;;;;5046925;28;20214;-79
2022/11/30 00:32:48;;;;;;;4.47;3.60;;;8.40;99.90;;;;;;5047698;28;20229;-78
2022/11/30 00:35:16;;;;;;;5.67;3.97;;;8.40;99.90;;;;;;5046592;28;20217;-79
2022/11/30 00:37:44;;;;;;;9.00;4.97;;;8.40;99.90;;;;;;5047407;28;20752;-78
2022/11/30 00:40:12;;;;;;;7.03;4.60;;;8.40;99.90;;;;;;5047261;28;20204;-78
2022/11/30 00:42:39;;;;;;;5.17;3.80;;;8.40;99.90;;;;;;5047550;28;20230;-80
2022/11/30 00:45:09;;;;;;;6.33;4.20;;;8.30;99.90;;;;;;5046505;28;20214;-79
2022/11/30 00:47:36;;;;;;;7.67;4.13;;;8.30;99.90;;;;;;5046576;28;20242;-79
2022/11/30 00:50:03;;;;;;;12.97;6.30;;;8.30;99.90;;;;;;5047713;28;20206;-78
2022/11/30 00:52:30;;;;;;;7.70;4.97;;;8.30;99.90;;;;;;5047400;28;20209;-78
2022/11/30 00:54:57;;;;;;;6.43;4.47;;;8.20;99.90;;;;;;5046858;28;20202;-78
2022/11/30 00:57:24;;;;;;;8.93;5.37;;;8.20;99.90;;;;;;5046430;28;20216;-79
2022/11/30 00:59:51;;;;;;;7.87;4.97;;;8.10;99.90;;;;;;5046889;28;20212;-78
2022/11/30 01:02:19;;;;;;;6.57;4.70;;;8.10;99.90;;;;;;5044850;28;20221;-79
2022/11/30 01:04:46;;;;;;;7.30;4.47;;;8.10;99.90;;;;;;5065102;28;20209;-78
2022/11/30 01:07:13;;;;;;;8.17;5.57;;;8.10;99.90;;;;;;5047083;28;20220;-79
2022/11/30 01:09:39;;;;;;;6.17;4.27;;;8.00;99.90;;;;;;5046347;28;20210;-78
2022/11/30 01:12:06;;;;;;;6.47;4.60;;;8.00;99.90;;;;;;5046781;28;20218;-79
2022/11/30 01:14:33;;;;;;;7.23;4.80;;;8.00;99.90;;;;;;5046702;28;20216;-79
2022/11/30 01:17:00;;;;;;;5.50;4.47;;;7.90;99.90;;;;;;5045984;28;20225;-79
2022/11/30 01:19:29;;;;;;;7.63;4.80;;;7.90;99.90;;;;;;5046232;28;20606;-77
2022/11/30 01:21:55;;;;;;;6.93;4.67;;;7.90;99.90;;;;;;5046939;28;20234;-78
2022/11/30 01:24:22;;;;;;;5.80;4.60;;;7.90;99.90;;;;;;5046145;28;20202;-80
2022/11/30 01:26:49;;;;;;;6.10;4.30;;;7.80;99.90;;;;;;5047002;28;20220;-79
2022/11/30 01:39:31;;;;;;;8.33;5.53;;;7.80;99.90;;;;;;5041365;28;20189;-78
2022/11/30 01:42:04;;;;;;;8.57;6.30;;;7.70;99.90;;;;;;5044303;28;20237;-79
2022/11/30 01:44:53;;;;;;;10.10;7.30;;;7.80;99.90;;;;;;5046157;28;20205;-78
2022/11/30 01:47:26;;;;;;;10.57;6.93;;;7.70;99.90;;;;;;5046354;28;20234;-78
2022/11/30 01:49:57;;;;;;;8.70;6.53;;;7.70;99.90;;;;;;5046732;28;20205;-78
2022/11/30 01:52:28;;;;;;;8.80;7.33;;;7.70;99.90;;;;;;5045772;28;20534;-78
2022/11/30 01:55:02;;;;;;;10.80;7.97;;;7.70;99.90;;;;;;5046338;28;20316;-78
2022/11/30 01:57:34;;;;;;;8.83;7.30;;;7.70;99.90;;;;;;5045873;28;20208;-78
2022/11/30 02:00:05;;;;;;;8.67;6.80;;;7.70;99.90;;;;;;5046082;28;20247;-79
2022/11/30 02:02:42;;;;;;;10.77;7.83;;;7.60;99.90;;;;;;5045958;28;20307;-79
2022/11/30 02:05:11;;;;;;;10.43;8.30;;;7.60;99.90;;;;;;5045988;28;20201;-78
2022/11/30 02:07:38;;;;;;;9.37;7.93;;;7.60;99.90;;;;;;5046512;28;20220;-79
2022/11/30 02:10:12;;;;;;;8.50;7.57;;;7.50;99.90;;;;;;5045917;28;20216;-81
2022/11/30 02:12:58;;;;;;;10.30;8.63;;;7.50;99.90;;;;;;5046190;28;20197;-79
2022/11/30 02:15:29;;;;;;;12.07;8.53;;;7.50;99.90;;;;;;5065231;28;20197;-79
2022/11/30 02:18:05;;;;;;;11.57;8.70;;;7.50;99.90;;;;;;5056154;28;20222;-80
2022/11/30 02:20:48;;;;;;;12.50;8.60;;;7.50;99.90;;;;;;5045924;28;20205;-79
2022/11/30 02:23:53;;;;;;;14.97;9.97;;;7.50;99.90;;;;;;5045373;28;20216;-79
2022/11/30 02:26:40;;;;;;;13.83;10.07;;;7.50;99.90;;;;;;5044354;28;20206;-79
2022/11/30 02:29:16;;;;;;;14.23;9.97;;;7.50;99.90;;;;;;5045472;28;20761;-78
2022/11/30 02:31:50;;;;;;;17.23;12.97;;;7.50;99.90;;;;;;5045857;28;20194;-79
2022/11/30 02:34:19;;;;;;;17.90;14.13;;;7.50;99.90;;;;;;5044599;28;20205;-77
2022/11/30 02:36:48;;;;;;;17.80;13.23;;;7.60;99.90;;;;;;5045556;28;20198;-78
2022/11/30 02:39:15;;;;;;;17.70;13.90;;;7.60;99.90;;;;;;5045041;28;20213;-79
2022/11/30 02:41:42;;;;;;;18.93;14.30;;;7.60;99.90;;;;;;5045163;28;20256;-78
2022/11/30 02:44:11;;;;;;;17.07;13.93;;;7.60;99.90;;;;;;5061075;28;20224;-79
2022/11/30 02:46:53;;;;;;;21.87;17.30;;;7.60;99.90;;;;;;5045370;28;20253;-78
2022/11/30 02:49:27;;;;;;;21.23;16.47;;;7.60;99.90;;;;;;5024838;28;20298;-79
2022/11/30 02:51:56;;;;;;;20.50;15.83;;;7.60;99.90;;;;;;5023778;28;20195;-78
2022/11/30 02:54:23;;;;;;;22.73;16.03;;;7.60;99.90;;;;;;5023434;28;20202;-79
2022/11/30 02:56:50;;;;;;;28.97;20.30;;;7.70;99.90;;;;;;5024523;28;20198;-78
2022/11/30 02:59:18;;;;;;;29.77;22.60;;;7.70;99.90;;;;;;5024984;28;20295;-78
2022/11/30 03:01:46;;;;;;;26.13;20.77;;;7.70;99.90;;;;;;5024315;28;20293;-78
2022/11/30 03:04:13;;;;;;;25.83;20.23;;;7.70;99.90;;;;;;5024631;28;20230;-79
2022/11/30 03:06:40;;;;;;;25.80;20.37;;;7.70;99.90;;;;;;5025033;28;20211;-79
2022/11/30 03:09:07;;;;;;;26.77;19.57;;;7.70;99.90;;;;;;5024017;28;20231;-78
2022/11/30 03:11:34;;;;;;;23.77;18.57;;;7.70;99.90;;;;;;5025416;28;20202;-79
2022/11/30 03:14:01;;;;;;;21.63;16.17;;;7.70;99.90;;;;;;5025147;28;20218;-78
2022/11/30 03:16:28;;;;;;;25.03;18.57;;;7.70;99.90;;;;;;5024810;28;20222;-79
2022/11/30 03:18:57;;;;;;;24.17;18.13;;;7.70;99.90;;;;;;5025247;28;20206;-79
2022/11/30 03:21:24;;;;;;;27.63;19.50;;;7.70;99.90;;;;;;5024355;28;20218;-79
2022/11/30 03:23:51;;;;;;;24.83;18.87;;;7.70;99.90;;;;;;5024740;28;20223;-77
2022/11/30 03:26:18;;;;;;;23.17;17.87;;;7.80;99.90;;;;;;5024655;28;20221;-79
2022/11/30 03:28:45;;;;;;;22.07;17.23;;;7.80;99.90;;;;;;5024121;28;20206;-78
2022/11/30 03:31:12;;;;;;;23.40;17.60;;;7.80;99.90;;;;;;5025112;28;20202;-79
2022/11/30 03:33:40;;;;;;;29.73;21.20;;;7.80;99.90;;;;;;5025766;28;20190;-79
2022/11/30 03:36:11;;;;;;;30.60;20.80;;;7.80;99.90;;;;;;5032074;28;20206;-78
2022/11/30 03:38:38;;;;;;;25.80;19.30;;;7.80;99.90;;;;;;5045651;28;20205;-78
2022/11/30 03:41:07;;;;;;;38.10;25.43;;;7.80;99.90;;;;;;5044852;28;20205;-79
2022/11/30 03:43:34;;;;;;;35.43;24.90;;;7.80;99.90;;;;;;5043732;28;20226;-79
2022/11/30 03:46:02;;;;;;;42.80;28.67;;;7.90;99.90;;;;;;5049339;28;20245;-79
2022/11/30 03:48:29;;;;;;;40.80;26.33;;;7.90;99.90;;;;;;5048674;28;20293;-80
2022/11/30 03:50:56;;;;;;;42.13;26.30;;;7.90;99.90;;;;;;5044785;28;20608;-79
2022/11/30 03:53:25;;;;;;;37.37;26.33;;;7.90;99.90;;;;;;5045357;28;20194;-79
2022/11/30 03:55:53;;;;;;;33.37;23.83;;;7.90;99.90;;;;;;5044434;28;20209;-79
2022/11/30 03:58:20;;;;;;;33.00;23.27;;;7.90;99.90;;;;;;5054502;28;20216;-78
2022/11/30 04:00:47;;;;;;;32.87;23.30;;;7.90;99.90;;;;;;5065119;28;20202;-79
2022/11/30 04:03:14;;;;;;;32.17;22.17;;;7.90;99.90;;;;;;5044026;28;20230;-79
2022/11/30 04:05:40;;;;;;;30.43;21.10;;;7.90;99.90;;;;;;5049678;28;20320;-79
2022/11/30 04:08:07;;;;;;;29.70;22.03;;;7.90;99.90;;;;;;5064632;28;20205;-79
2022/11/30 04:10:35;;;;;;;26.73;19.83;;;7.90;99.90;;;;;;5050567;28;20616;-79
2022/11/30 04:13:02;;;;;;;29.20;21.47;;;7.90;99.90;;;;;;5044025;28;20198;-78
2022/11/30 04:15:29;;;;;;;31.10;22.90;;;7.90;99.90;;;;;;5044666;28;20213;-79
2022/11/30 04:17:56;;;;;;;27.23;20.60;;;7.90;99.90;;;;;;5044424;28;20276;-79
2022/11/30 04:20:23;;;;;;;29.90;20.73;;;7.90;99.90;;;;;;5044341;28;20202;-79
2022/11/30 04:22:50;;;;;;;29.50;21.60;;;7.90;99.90;;;;;;5044389;28;20237;-79
2022/11/30 04:25:17;;;;;;;25.90;19.53;;;7.90;99.90;;;;;;5043871;28;20301;-79
2022/11/30 04:27:46;;;;;;;32.07;22.03;;;7.90;99.90;;;;;;5044522;28;20204;-79
2022/11/30 04:30:14;;;;;;;27.37;20.93;;;8.00;99.90;;;;;;5043327;28;20567;-79
2022/11/30 04:32:41;;;;;;;26.67;20.53;;;8.00;99.90;;;;;;5044216;28;20198;-79
2022/11/30 04:35:09;;;;;;;28.33;20.23;;;8.00;99.90;;;;;;5043514;28;20202;-79
2022/11/30 04:37:36;;;;;;;33.87;23.87;;;8.00;99.90;;;;;;5048553;28;20208;-78
2022/11/30 04:40:04;;;;;;;31.93;22.33;;;8.00;99.90;;;;;;5065059;28;20612;-79
2022/11/30 04:42:31;;;;;;;29.80;21.20;;;8.00;99.90;;;;;;5066805;28;20617;-79
2022/11/30 04:44:59;;;;;;;26.70;20.33;;;8.00;99.90;;;;;;5068036;28;20205;-78
2022/11/30 04:47:26;;;;;;;26.13;20.37;;;8.00;99.90;;;;;;5065508;28;20241;-78
2022/11/30 04:49:53;;;;;;;26.53;20.63;;;8.00;99.90;;;;;;5067734;28;20197;-79
2022/11/30 04:52:20;;;;;;;29.73;21.00;;;8.00;99.90;;;;;;5066174;28;20208;-77
2022/11/30 04:54:47;;;;;;;26.43;20.40;;;8.00;99.90;;;;;;5067121;28;20197;-79
2022/11/30 04:57:14;;;;;;;27.10;20.13;;;8.00;99.90;;;;;;5067022;28;20201;-79
2022/11/30 04:59:41;;;;;;;30.80;22.17;;;8.00;99.90;;;;;;5063182;28;20201;-78
2022/11/30 05:02:09;;;;;;;29.37;21.17;;;8.00;99.90;;;;;;5047007;28;20675;-79
2022/11/30 05:04:36;;;;;;;27.33;20.00;;;8.00;99.90;;;;;;5050616;28;20225;-79
2022/11/30 05:07:03;;;;;;;23.93;18.97;;;8.00;99.90;;;;;;5067337;28;20475;-80
2022/11/30 05:09:30;;;;;;;25.40;18.53;;;8.00;99.90;;;;;;5062204;28;20205;-77
2022/11/30 05:11:56;;;;;;;22.70;17.50;;;8.00;99.90;;;;;;5047247;28;20253;-78
2022/11/30 05:14:23;;;;;;;22.37;16.80;;;8.00;99.90;;;;;;5046839;28;20198;-78
2022/11/30 05:16:50;;;;;;;24.87;18.10;;;8.00;99.90;;;;;;5063605;28;20233;-79
2022/11/30 05:19:18;;;;;;;22.67;17.63;;;8.00;99.90;;;;;;5065554;28;20601;-79
2022/11/30 05:21:45;;;;;;;24.47;17.60;;;8.00;99.90;;;;;;5066327;28;20205;-79
2022/11/30 05:24:12;;;;;;;25.97;18.97;;;8.00;99.90;;;;;;5050574;28;20225;-79
2022/11/30 05:26:40;;;;;;;23.13;18.23;;;8.00;99.90;;;;;;5048815;28;20317;-79
2022/11/30 05:29:07;;;;;;;22.73;16.77;;;8.00;99.90;;;;;;5047888;28;20198;-79
2022/11/30 05:31:34;;;;;;;29.77;21.87;;;8.00;99.90;;;;;;5048346;28;20201;-79
2022/11/30 05:34:00;;;;;;;25.07;19.03;;;8.00;99.90;;;;;;5048951;28;20198;-78
2022/11/30 05:36:29;;;;;;;22.77;17.43;;;8.00;99.90;;;;;;5047806;28;20201;-79
2022/11/30 05:38:56;;;;;;;26.40;18.73;;;8.00;99.90;;;;;;5058402;28;20220;-79
2022/11/30 05:41:22;;;;;;;23.90;18.73;;;8.00;99.90;;;;;;5062819;28;20202;-81
2022/11/30 05:43:49;;;;;;;21.90;17.17;;;8.00;99.90;;;;;;5046599;28;20224;-79
2022/11/30 05:46:16;;;;;;;28.37;20.87;;;8.10;99.90;;;;;;5046257;28;20249;-78
2022/11/30 05:48:43;;;;;;;32.27;22.20;;;8.00;99.90;;;;;;5047521;28;20293;-79
2022/11/30 05:51:11;;;;;;;26.40;19.77;;;8.00;99.90;;;;;;5045325;28;20208;-81
2022/11/30 05:53:40;;;;;;;26.97;20.03;;;8.10;99.90;;;;;;5046510;28;20202;-78
2022/11/30 05:56:09;;;;;;;23.63;18.33;;;8.10;99.90;;;;;;5046401;28;20225;-79
2022/11/30 05:58:38;;;;;;;25.23;18.97;;;8.10;99.90;;;;;;5047904;28;20228;-79
2022/11/30 06:01:05;;;;;;;24.07;18.40;;;8.10;99.90;;;;;;5065957;28;20216;-77
2022/11/30 06:03:34;;;;;;;24.47;18.47;;;8.10;99.90;;;;;;5065912;28;20232;-80
2022/11/30 06:06:01;;;;;;;35.00;23.87;;;8.10;99.90;;;;;;5063030;28;20464;-79
2022/11/30 06:08:28;;;;;;;31.40;22.57;;;8.00;99.90;;;;;;5060977;28;20197;-79
2022/11/30 06:11:00;;;;;;;30.13;21.80;;;8.10;99.90;;;;;;5065301;28;20201;-79
2022/11/30 06:13:27;;;;;;;28.67;20.37;;;8.10;99.90;;;;;;5057839;28;20613;-79
2022/11/30 06:15:54;;;;;;;31.47;22.70;;;8.00;99.90;;;;;;5045719;28;20593;-79
2022/11/30 06:18:21;;;;;;;32.17;20.87;;;8.00;99.90;;;;;;5044827;28;20218;-78
2022/11/30 06:20:48;;;;;;;31.90;22.60;;;8.00;99.90;;;;;;5045434;28;20205;-79
2022/11/30 06:23:15;;;;;;;26.63;20.23;;;8.00;99.90;;;;;;5045267;28;20206;-77
2022/11/30 06:25:41;;;;;;;26.43;20.07;;;8.00;99.90;;;;;;5045172;28;20249;-78
2022/11/30 06:28:11;;;;;;;25.63;19.27;;;8.00;99.90;;;;;;5045015;28;20209;-78
2022/11/30 06:30:37;;;;;;;25.77;19.03;;;8.00;99.90;;;;;;5045382;28;20209;-79
2022/11/30 06:33:05;;;;;;;24.63;18.07;;;8.00;99.90;;;;;;5045095;28;20201;-79
2022/11/30 06:35:32;;;;;;;26.10;19.43;;;8.00;99.90;;;;;;5044772;28;20208;-79
2022/11/30 06:37:59;;;;;;;25.30;18.07;;;8.00;99.90;;;;;;5045228;28;20206;-79
2022/11/30 06:40:27;;;;;;;23.40;17.90;;;8.00;99.90;;;;;;5044633;28;20210;-78
2022/11/30 06:42:54;;;;;;;25.87;18.80;;;8.00;99.90;;;;;;5045266;28;20202;-78
2022/11/30 06:45:22;;;;;;;33.03;22.37;;;8.00;99.90;;;;;;5044450;28;20225;-78
2022/11/30 06:47:49;;;;;;;33.60;24.03;;;8.00;99.90;;;;;;5044359;28;20210;-79
2022/11/30 06:50:16;;;;;;;36.83;24.53;;;8.00;99.90;;;;;;5045682;28;20879;-78
2022/11/30 06:52:42;;;;;;;31.10;21.33;;;8.00;99.90;;;;;;5064467;28;20197;-79
2022/11/30 06:55:10;;;;;;;33.37;20.73;;;8.00;99.90;;;;;;5063127;28;20923;-79
2022/11/30 06:57:37;;;;;;;30.63;20.70;;;8.00;99.90;;;;;;5059266;28;20214;-78
2022/11/30 07:00:05;;;;;;;33.30;23.63;;;8.00;99.90;;;;;;5050265;28;20197;-78
2022/11/30 07:02:34;;;;;;;32.03;21.27;;;8.00;99.90;;;;;;5065027;28;20206;-81
2022/11/30 07:05:01;;;;;;;29.93;21.23;;;8.00;99.90;;;;;;5052876;28;20265;-80
2022/11/30 07:07:28;;;;;;;34.73;22.83;;;8.00;99.90;;;;;;5056886;28;20202;-79
2022/11/30 07:09:55;;;;;;;29.53;21.27;;;8.00;99.90;;;;;;5065528;28;20193;-80
2022/11/30 07:12:23;;;;;;;30.40;21.30;;;8.00;99.90;;;;;;5057258;28;20202;-77
2022/11/30 07:14:51;;;;;;;38.37;26.43;;;8.00;99.90;;;;;;5064318;28;20198;-78
2022/11/30 07:17:18;;;;;;;31.57;21.03;;;8.00;99.90;;;;;;5065043;28;20518;-78
2022/11/30 07:19:46;;;;;;;29.47;20.47;;;8.00;99.90;;;;;;5064909;28;20216;-77
2022/11/30 07:22:13;;;;;;;27.53;19.87;;;8.00;99.90;;;;;;5053734;28;20734;-78
2022/11/30 07:27:25;;;;;;;26.80;18.10;;;8.00;99.90;;;;;;5064016;28;20204;-78
2022/11/30 07:29:52;;;;;;;23.73;18.93;;;8.00;99.90;;;;;;5064834;28;20214;-79
2022/11/30 07:32:19;;;;;;;23.47;18.23;;;8.00;99.90;;;;;;5065509;28;20752;-77
2022/11/30 07:34:47;;;;;;;28.33;19.63;;;8.00;99.90;;;;;;5045433;28;20205;-79
2022/11/30 07:37:14;;;;;;;30.93;21.17;;;7.90;99.90;;;;;;5042727;28;20210;-79
2022/11/30 07:39:41;;;;;;;25.90;19.73;;;7.90;99.90;;;;;;5044834;28;20213;-78
2022/11/30 07:42:08;;;;;;;26.93;19.13;;;7.90;99.90;;;;;;5045097;28;20733;-78
2022/11/30 07:44:35;;;;;;;26.63;19.30;;;7.90;99.90;;;;;;5044548;28;20226;-79
2022/11/30 07:47:01;;;;;;;27.17;19.57;;;7.90;99.90;;;;;;5044309;28;20932;-78
2022/11/30 07:49:28;;;;;;;24.67;18.17;;;7.90;99.90;;;;;;5044101;28;20202;-78
2022/11/30 07:51:56;;;;;;;24.07;18.83;;;7.90;99.90;;;;;;5044821;28;20205;-80
2022/11/30 07:54:23;;;;;;;25.37;18.80;;;7.90;99.90;;;;;;5051419;28;20209;-78
2022/11/30 07:56:50;;;;;;;23.37;18.50;;;7.80;99.90;;;;;;5056763;28;20209;-79
2022/11/30 07:59:17;;;;;;;35.93;23.83;;;7.80;99.90;;;;;;5064075;28;20197;-79
2022/11/30 08:01:44;;;;;;;36.87;25.90;;;7.80;99.90;;;;;;5056206;28;20293;-78
2022/11/30 08:04:12;;;;;;;31.70;22.43;;;7.80;99.90;;;;;;5064215;28;20255;-78
2022/11/30 08:06:39;;;;;;;30.70;22.27;;;7.70;99.90;;;;;;5064075;28;20208;-78
2022/11/30 08:09:11;;;;;;;32.43;21.83;;;7.70;99.90;;;;;;5064226;28;20209;-79
2022/11/30 08:11:38;;;;;;;31.17;20.60;;;7.70;99.90;;;;;;5064853;28;20201;-80
2022/11/30 08:14:05;;;;;;;28.00;21.03;;;7.70;99.90;;;;;;5065275;28;20201;-80
2022/11/30 08:16:36;;;;;;;33.20;23.13;;;7.70;99.90;;;;;;5057887;28;20240;-78
2022/11/30 08:19:03;;;;;;;27.53;20.97;;;7.80;99.90;;;;;;5048601;28;20206;-80
2022/11/30 08:21:31;;;;;;;40.07;26.60;;;7.80;99.90;;;;;;5049138;28;20284;-80
2022/11/30 08:23:58;;;;;;;36.97;25.97;;;7.80;99.90;;;;;;5049445;28;20226;-79
2022/11/30 08:26:28;;;;;;;39.43;26.93;;;7.90;99.90;;;;;;5046280;28;20683;-77
2022/11/30 08:28:55;;;;;;;43.83;28.17;;;7.90;99.90;;;;;;5048602;28;20210;-79
2022/11/30 08:31:24;;;;;;;43.47;29.40;;;7.90;99.90;;;;;;5049204;28;20220;-78
2022/11/30 08:33:55;;;;;;;41.67;27.47;;;7.90;99.90;;;;;;5052567;28;20204;-79
2022/11/30 08:36:23;;;;;;;39.13;26.67;;;8.00;99.90;;;;;;5054679;28;20206;-78
2022/11/30 08:38:50;;;;;;;36.93;26.07;;;8.00;99.90;;;;;;5054902;28;20297;-79
2022/11/30 08:41:20;;;;;;;46.83;29.60;;;8.00;99.90;;;;;;5054466;28;20206;-79
2022/11/30 08:43:50;;;;;;;43.67;28.17;;;8.00;99.90;;;;;;5055057;28;20301;-78
2022/11/30 08:46:19;;;;;;;41.97;27.63;;;8.00;99.90;;;;;;5054578;28;20244;-78
2022/11/30 08:48:46;;;;;;;34.40;23.93;;;8.10;99.90;;;;;;5055187;28;20512;-78
2022/11/30 08:51:16;;;;;;;34.50;24.23;;;8.10;99.90;;;;;;5053812;28;20202;-78
2022/11/30 08:53:43;;;;;;;34.53;21.97;;;8.10;99.90;;;;;;5053493;28;20214;-79
2022/11/30 08:56:12;;;;;;;34.10;22.67;;;8.10;99.90;;;;;;5054557;28;20198;-79
2022/11/30 08:58:40;;;;;;;31.90;21.23;;;8.10;99.90;;;;;;5054113;28;20194;-78
2022/11/30 09:01:09;;;;;;;35.67;23.57;;;8.10;99.90;;;;;;5053939;28;20201;-82
2022/11/30 09:03:36;;;;;;;32.23;22.10;;;8.20;99.90;;;;;;5054259;28;20198;-78
2022/11/30 09:06:05;;;;;;;34.97;24.30;;;8.20;99.90;;;;;;5053920;28;20225;-76
2022/11/30 09:08:33;;;;;;;35.53;23.13;;;8.20;99.90;;;;;;5054487;28;20603;-80
2022/11/30 09:11:07;;;;;;;36.00;24.57;;;8.30;99.90;;;;;;5056048;28;20266;-82
2022/11/30 09:13:34;;;;;;;34.33;23.43;;;8.30;99.90;;;;;;5056093;28;20202;-82
2022/11/30 09:16:01;;;;;;;35.53;22.73;;;8.30;99.90;;;;;;5064912;28;20212;-83
2022/11/30 09:18:29;;;;;;;34.33;23.63;;;8.40;99.90;;;;;;5063198;28;20209;-82
2022/11/30 09:20:59;;;;;;;35.67;24.30;;;8.40;99.90;;;;;;5055748;28;20198;-78
2022/11/30 09:23:26;;;;;;;39.60;24.40;;;8.50;99.90;;;;;;5055357;28;20203;-79
2022/11/30 09:25:56;;;;;;;32.73;24.07;;;8.50;99.90;;;;;;5053208;28;20226;-80
2022/11/30 09:28:22;;;;;;;34.40;23.23;;;8.50;99.90;;;;;;5054574;28;20212;-80
2022/11/30 09:30:49;;;;;;;39.47;26.13;;;8.50;99.90;;;;;;5054841;28;20289;-80
2022/11/30 09:33:16;;;;;;;37.60;25.87;;;8.60;99.90;;;;;;5055168;28;20202;-79
2022/11/30 09:35:45;;;;;;;37.87;26.57;;;8.60;99.90;;;;;;5054428;28;20212;-81
2022/11/30 09:38:12;;;;;;;36.90;25.13;;;8.60;99.90;;;;;;5055276;28;20228;-81
2022/11/30 09:40:41;;;;;;;36.43;24.93;;;8.60;99.90;;;;;;5055042;28;20194;-81
2022/11/30 09:43:24;;;;;;;36.60;26.20;;;8.70;99.90;;;;;;5054158;28;20611;-79
2022/11/30 09:45:57;;;;;;;36.87;25.30;;;8.70;99.90;;;;;;5054209;28;20310;-79
2022/11/30 09:48:39;;;;;;;36.17;26.20;;;8.80;99.90;;;;;;5054825;28;20202;-81
2022/11/30 09:51:14;;;;;;;37.07;23.43;;;8.80;99.90;;;;;;5054211;28;20512;-80
2022/11/30 09:53:45;;;;;;;35.53;24.50;;;8.80;99.90;;;;;;5054413;28;20208;-80
2022/11/30 09:56:21;;;;;;;35.47;23.90;;;8.80;99.90;;;;;;5054185;28;20281;-80
2022/11/30 09:58:52;;;;;;;36.53;25.93;;;8.90;99.90;;;;;;5053672;28;20276;-79
2022/11/30 10:01:21;;;;;;;32.87;24.73;;;8.90;99.90;;;;;;5055026;28;20194;-81
2022/11/30 10:03:48;;;;;;;31.93;22.47;;;8.90;99.90;;;;;;5063330;28;20656;-80
2022/11/30 10:06:24;;;;;;;33.27;23.50;;;8.90;99.90;;;;;;5073883;28;20217;-80
2022/11/30 10:09:03;;;;;;;43.70;27.60;;;9.00;99.90;;;;;;5074551;28;20570;-82
2022/11/30 10:11:52;;;;;;;41.83;28.43;;;9.10;99.90;;;;;;5054824;28;20281;-82
2022/11/30 10:14:40;;;;;;;38.67;24.90;;;9.10;99.90;;;;;;5054165;28;20208;-81
2022/11/30 10:17:18;;;;;;;37.07;26.20;;;9.20;99.90;;;;;;5054183;28;20303;-82
2022/11/30 10:20:00;;;;;;;40.57;25.50;;;9.20;99.90;;;;;;5054630;28;20194;-81
2022/11/30 10:22:41;;;;;;;38.97;26.00;;;9.20;99.90;;;;;;5067357;28;20202;-81
2022/11/30 10:25:18;;;;;;;34.13;24.27;;;9.30;99.90;;;;;;5074261;28;20355;-82
2022/11/30 10:27:50;;;;;;;34.93;23.90;;;9.30;99.90;;;;;;5074201;28;20203;-81
2022/11/30 10:30:21;;;;;;;32.77;22.70;;;9.30;99.90;;;;;;5072924;28;20194;-82
2022/11/30 10:32:51;;;;;;;30.43;22.33;;;9.40;99.90;;;;;;5073392;28;20205;-81
2022/11/30 10:35:27;;;;;;;32.17;23.90;;;9.40;99.90;;;;;;5066968;28;20202;-81
2022/11/30 10:37:57;;;;;;;34.40;23.67;;;9.50;99.90;;;;;;5054476;28;20197;-83
2022/11/30 10:40:34;;;;;;;32.43;23.20;;;9.50;99.90;;;;;;5054535;28;20232;-82
2022/11/30 10:43:14;;;;;;;31.30;24.33;;;9.50;99.90;;;;;;5054881;28;20202;-81
2022/11/30 10:45:46;;;;;;;31.23;21.27;;;9.50;99.90;;;;;;5053482;28;20256;-80
2022/11/30 10:48:17;;;;;;;31.73;23.43;;;9.50;99.90;;;;;;5053644;28;20213;-83
2022/11/30 10:50:44;;;;;;;28.70;20.53;;;9.40;99.90;;;;;;5053632;28;20210;-82
2022/11/30 10:53:13;;;;;;;28.67;21.00;;;9.40;99.90;;;;;;5054488;28;20205;-80
2022/11/30 10:55:43;;;;;;;27.40;21.10;;;9.40;99.90;;;;;;5073389;28;20204;-81
2022/11/30 10:58:16;;;;;;;34.13;21.87;;;9.50;99.90;;;;;;5071497;28;20193;-82
2022/11/30 11:00:48;;;;;;;29.23;21.43;;;9.50;99.90;;;;;;5055658;28;20193;-79
2022/11/30 11:03:23;;;;;;;29.70;21.50;;;9.60;99.90;;;;;;5069739;28;20284;-81
2022/11/30 11:06:04;;;;;;;32.53;24.07;;;9.70;99.90;;;;;;5072478;28;20231;-79
2022/11/30 11:08:32;;;;;;;29.00;21.67;;;9.60;99.90;;;;;;5060660;28;20200;-80
2022/11/30 11:10:59;;;;;;;30.60;21.77;;;9.60;99.90;;;;;;5052162;28;20212;-80
2022/11/30 11:13:37;;;;;;;27.43;19.23;;;9.60;99.90;;;;;;5052039;28;20606;-78
2022/11/30 11:16:05;;;;;;;23.07;18.20;;;9.60;99.90;;;;;;5055142;28;20217;-79
2022/11/30 11:18:33;;;;;;;31.93;22.07;;;9.60;99.90;;;;;;5072907;28;20201;-77
2022/11/30 11:21:04;;;;;;;27.73;20.27;;;9.70;99.90;;;;;;5072371;28;20292;-78
2022/11/30 11:23:34;;;;;;;30.93;21.47;;;9.60;99.90;;;;;;5073241;28;20279;-79
2022/11/30 11:26:02;;;;;;;29.40;19.90;;;9.60;99.90;;;;;;5058614;28;20349;-80
2022/11/30 11:28:29;;;;;;;27.97;20.33;;;9.60;99.90;;;;;;5052108;28;20198;-80
2022/11/30 11:30:58;;;;;;;28.07;22.17;;;9.60;99.90;;;;;;5052221;28;20210;-80
2022/11/30 11:33:26;;;;;;;32.60;21.83;;;9.60;99.90;;;;;;5053138;28;20289;-83
2022/11/30 11:35:56;;;;;;;27.67;20.07;;;9.60;99.90;;;;;;5052239;28;20283;-80
2022/11/30 11:38:28;;;;;;;26.47;19.60;;;9.60;99.90;;;;;;5066282;28;20205;-81
2022/11/30 11:40:59;;;;;;;27.80;19.87;;;9.70;99.90;;;;;;5073070;28;20204;-81
2022/11/30 11:43:28;;;;;;;25.70;18.70;;;9.80;99.90;;;;;;5054015;28;20216;-79
2022/11/30 11:45:58;;;;;;;23.63;17.50;;;9.80;99.90;;;;;;5052479;28;20245;-81
2022/11/30 11:48:36;;;;;;;22.90;17.53;;;9.80;99.90;;;;;;5052541;28;20331;-80
2022/11/30 11:51:05;;;;;;;25.60;18.13;;;9.90;99.90;;;;;;5056318;28;20186;-78
2022/11/30 11:53:42;;;;;;;26.00;19.03;;;9.90;99.90;;;;;;5070333;28;20590;-81
2022/11/30 11:56:17;;;;;;;28.00;18.87;;;9.90;99.90;;;;;;5059557;28;20198;-81
2022/11/30 11:58:49;;;;;;;22.80;18.00;;;9.80;99.90;;;;;;5057989;28;20198;-82
2022/11/30 12:01:25;;;;;;;19.20;14.80;;;9.80;99.90;;;;;;5060425;28;20216;-82
2022/11/30 12:04:04;;;;;;;22.53;16.50;;;9.80;99.90;;;;;;5056559;28;20259;-79
2022/11/30 12:06:33;;;;;;;24.10;17.63;;;9.80;99.90;;;;;;5056417;28;20240;-81
2022/11/30 12:09:07;;;;;;;22.73;16.80;;;9.80;99.90;;;;;;5056140;28;20357;-78
2022/11/30 12:11:42;;;;;;;23.10;17.53;;;9.80;99.90;;;;;;5055791;28;20196;-80
2022/11/30 12:14:12;;;;;;;22.17;16.60;;;9.80;99.90;;;;;;5056734;28;20282;-81
2022/11/30 12:17:00;;;;;;;24.47;17.93;;;9.80;99.90;;;;;;5064930;28;20223;-79
2022/11/30 12:19:33;;;;;;;22.47;17.67;;;9.90;99.90;;;;;;5075666;28;20492;-80
2022/11/30 12:22:12;;;;;;;23.60;17.17;;;10.00;99.90;;;;;;5074155;28;20608;-80
2022/11/30 12:24:58;;;;;;;22.67;17.43;;;10.00;99.90;;;;;;5075058;28;20200;-78
2022/11/30 12:27:37;;;;;;;23.00;18.37;;;10.00;99.90;;;;;;5075819;28;20708;-78
2022/11/30 12:30:12;;;;;;;22.37;17.30;;;10.00;99.90;;;;;;5065541;28;20204;-79
2022/11/30 12:33:00;;;;;;;26.03;18.10;;;10.00;99.90;;;;;;5055370;28;20221;-79
2022/11/30 12:35:37;;;;;;;23.47;17.17;;;10.10;99.90;;;;;;5054315;28;20212;-78
2022/11/30 12:38:13;;;;;;;24.37;19.33;;;10.10;99.90;;;;;;5055089;28;20190;-78
2022/11/30 12:40:50;;;;;;;24.97;18.17;;;10.20;99.90;;;;;;5055247;28;20200;-79
2022/11/30 12:43:30;;;;;;;24.37;19.40;;;10.20;99.90;;;;;;5054275;28;20221;-79
2022/11/30 12:46:05;;;;;;;27.93;20.93;;;10.30;99.90;;;;;;5053591;28;20233;-79
2022/11/30 12:48:39;;;;;;;27.43;21.53;;;10.40;99.90;;;;;;5054423;28;20364;-81
2022/11/30 12:51:15;;;;;;;36.83;23.43;;;10.40;99.90;;;;;;5054886;28;20232;-81
2022/11/30 12:53:50;;;;;;;27.17;20.33;;;10.40;99.90;;;;;;5054325;28;20778;-81
2022/11/30 12:56:30;;;;;;;24.43;20.97;;;10.40;99.90;;;;;;5055321;28;20190;-80
2022/11/30 12:59:08;;;;;;;26.73;20.47;;;10.40;99.90;;;;;;5054858;28;20602;-81
2022/11/30 13:01:54;;;;;;;26.67;20.80;;;10.30;99.90;;;;;;5054927;28;20206;-78
2022/11/30 13:04:27;;;;;;;26.77;20.87;;;10.20;99.90;;;;;;5069699;22;20237;-80
2022/11/30 13:06:59;;;;;;;26.03;21.07;;;10.20;99.90;;;;;;5072939;28;20226;-80